Terminal Aerodrome Forecast
Issued by NWS

Home | Current Version | Previous Version | Text Only | Print | Product List | Glossary On
Versions: 1 2 3 4 5 6 7 8 9 10 11 12 13 14 15 16 17 18 19 20
000
FTUS45 KTFX 250500
TAFCTB
TAF
KCTB 250538Z 2506/2606 32008KT P6SM SCT040 BKN060
      TEMPO 2507/2509 SCT015 BKN025
     FM250900 30006KT 5SM BR SCT008 OVC015
     FM252000 21007KT P6SM SCT030 SCT060
     FM260300 25011KT P6SM SCT040 BKN070=

USA.gov is the U.S. government's official web portal to all federal, state and local government web resources and services.